createdAt,value
2019-02-25T00:00:54.233Z,0.00
2019-02-25T00:01:54.245Z,0.00
2019-02-25T00:02:54.217Z,0.00
2019-02-25T00:03:54.229Z,0.00
2019-02-25T00:04:54.220Z,0.00
2019-02-25T00:05:54.227Z,0.00
2019-02-25T00:06:54.204Z,0.00
2019-02-25T00:07:54.153Z,0.00
2019-02-25T00:08:54.185Z,0.00
2019-02-25T00:09:54.131Z,0.00
2019-02-25T00:10:54.123Z,0.00
2019-02-25T00:11:54.141Z,0.00
2019-02-25T00:12:54.139Z,0.00
2019-02-25T00:13:54.092Z,0.00
2019-02-25T00:14:54.066Z,0.00
2019-02-25T00:15:54.066Z,0.00
2019-02-25T00:16:54.123Z,0.00
2019-02-25T00:17:54.092Z,0.00
2019-02-25T00:18:54.034Z,0.00
2019-02-25T00:19:54.026Z,0.00
2019-02-25T00:20:54.003Z,0.00
2019-02-25T00:21:53.997Z,0.00
2019-02-25T00:22:53.977Z,0.00
2019-02-25T00:23:54.009Z,0.00
2019-02-25T00:24:54.000Z,0.00
2019-02-25T00:25:53.944Z,0.00
2019-02-25T00:26:53.939Z,0.00
2019-02-25T00:27:53.936Z,0.00
2019-02-25T00:28:53.917Z,0.00
2019-02-25T00:29:53.955Z,0.00
2019-02-25T00:30:53.909Z,0.00
2019-02-25T00:31:53.893Z,0.00
2019-02-25T00:32:53.874Z,0.00
2019-02-25T00:33:53.885Z,0.00
2019-02-25T00:34:53.861Z,0.00
2019-02-25T00:35:53.894Z,0.00
2019-02-25T00:36:53.849Z,0.00
2019-02-25T00:37:53.869Z,0.00
2019-02-25T00:38:53.830Z,0.00
2019-02-25T00:39:53.835Z,0.00
2019-02-25T00:40:53.809Z,0.00
2019-02-25T00:41:53.896Z,0.00
2019-02-25T00:42:53.791Z,0.00
2019-02-25T00:43:53.750Z,0.00
2019-02-25T00:44:53.743Z,0.00
2019-02-25T00:45:53.789Z,0.00
2019-02-25T00:46:53.768Z,0.00
2019-02-25T00:47:53.738Z,0.00
2019-02-25T00:48:53.739Z,0.00
2019-02-25T00:49:53.686Z,0.00
2019-02-25T00:50:53.689Z,0.00
2019-02-25T00:51:53.677Z,0.00
2019-02-25T00:52:53.666Z,0.00
2019-02-25T00:53:53.692Z,0.00
2019-02-25T00:54:53.637Z,0.00
2019-02-25T00:55:53.624Z,0.00
2019-02-25T00:56:53.613Z,0.00
2019-02-25T00:57:53.604Z,0.00
2019-02-25T00:58:53.618Z,0.00
2019-02-25T00:59:53.630Z,0.00
2019-02-25T01:00:53.563Z,0.00
2019-02-25T01:01:53.554Z,0.00
2019-02-25T01:02:53.542Z,0.00
2019-02-25T01:03:53.532Z,0.00
2019-02-25T01:04:53.629Z,0.00
2019-02-25T01:05:53.577Z,0.00
2019-02-25T01:06:53.498Z,0.00
2019-02-25T01:07:53.491Z,0.00
2019-02-25T01:08:53.485Z,0.00
2019-02-25T01:09:53.477Z,0.00
2019-02-25T01:10:53.517Z,0.00
2019-02-25T01:11:53.721Z,0.00
2019-02-25T01:12:53.445Z,0.00
2019-02-25T01:13:53.422Z,0.00
2019-02-25T01:14:53.425Z,0.00
2019-02-25T01:15:53.401Z,0.00
2019-02-25T01:16:53.400Z,0.00
2019-02-25T01:17:53.428Z,0.00
2019-02-25T01:18:53.374Z,0.00
2019-02-25T01:19:53.360Z,0.00
2019-02-25T01:20:53.351Z,0.00
2019-02-25T01:21:53.353Z,0.00
2019-02-25T01:22:53.331Z,0.00
2019-02-25T01:23:53.357Z,0.00
2019-02-25T01:24:53.309Z,0.00
2019-02-25T01:25:53.295Z,0.00
2019-02-25T01:26:53.316Z,0.00
2019-02-25T01:27:53.278Z,0.00
2019-02-25T01:28:53.319Z,0.00
2019-02-25T01:29:53.472Z,0.00
2019-02-25T01:30:53.263Z,0.00
2019-02-25T01:31:53.251Z,0.00
2019-02-25T01:32:53.262Z,0.00
2019-02-25T01:33:53.210Z,0.00
2019-02-25T01:34:53.214Z,0.00
2019-02-25T01:35:53.254Z,0.00
2019-02-25T01:36:53.178Z,0.00
2019-02-25T01:37:53.159Z,0.00
2019-02-25T01:38:53.166Z,0.00
2019-02-25T01:39:53.138Z,0.00
2019-02-25T01:40:53.126Z,0.00
2019-02-25T01:41:53.263Z,0.00
2019-02-25T01:42:53.176Z,0.00
2019-02-25T01:43:53.092Z,0.00
2019-02-25T01:44:53.088Z,0.00
2019-02-25T01:45:53.125Z,0.00
2019-02-25T01:46:53.072Z,0.00
2019-02-25T01:47:53.097Z,0.00
2019-02-25T01:48:53.072Z,0.00
2019-02-25T01:49:53.038Z,0.00
2019-02-25T01:50:53.075Z,0.00
2019-02-25T01:51:53.026Z,0.00
2019-02-25T01:52:53.001Z,0.00
2019-02-25T01:53:53.114Z,0.00
2019-02-25T01:54:52.980Z,0.00
2019-02-25T01:55:52.973Z,0.00
2019-02-25T01:56:52.960Z,0.00
2019-02-25T01:57:52.986Z,0.00
2019-02-25T01:58:52.965Z,0.00
2019-02-25T01:59:52.997Z,0.00
2019-02-25T02:00:52.914Z,0.00
2019-02-25T02:01:52.920Z,0.00
2019-02-25T02:02:52.890Z,0.00
2019-02-25T02:03:52.873Z,0.00
2019-02-25T02:04:52.872Z,0.00
2019-02-25T02:05:52.898Z,0.00
2019-02-25T02:06:52.873Z,0.00
2019-02-25T02:07:52.904Z,0.00
2019-02-25T02:08:52.917Z,0.00
2019-02-25T02:09:52.819Z,0.00
2019-02-25T02:10:52.803Z,0.00
2019-02-25T02:11:52.831Z,0.00
2019-02-25T02:12:52.806Z,0.00
2019-02-25T02:13:52.781Z,0.00
2019-02-25T02:14:52.828Z,0.00
2019-02-25T02:15:52.758Z,0.00
2019-02-25T02:16:52.760Z,0.00
2019-02-25T02:17:52.940Z,0.00
2019-02-25T02:18:52.725Z,0.00
2019-02-25T02:19:52.716Z,0.00
2019-02-25T02:20:52.705Z,0.00
2019-02-25T02:21:52.693Z,0.00
2019-02-25T02:22:52.689Z,0.00
2019-02-25T02:23:52.695Z,0.00
2019-02-25T02:24:52.662Z,0.00
2019-02-25T02:25:52.637Z,0.00
2019-02-25T02:26:52.638Z,0.00
2019-02-25T02:27:52.691Z,0.00
2019-02-25T02:28:52.616Z,0.00
2019-02-25T02:29:52.668Z,0.00
2019-02-25T02:30:52.596Z,0.00
2019-02-25T02:31:52.581Z,0.00
2019-02-25T02:32:52.563Z,0.00
2019-02-25T02:33:52.571Z,0.00
2019-02-25T02:34:52.544Z,0.00
2019-02-25T02:35:52.573Z,0.00
2019-02-25T02:36:52.538Z,0.00
2019-02-25T02:37:52.515Z,0.00
2019-02-25T02:38:52.521Z,0.00
2019-02-25T02:39:52.493Z,0.00
2019-02-25T02:40:52.479Z,0.00
2019-02-25T02:41:52.506Z,0.00
2019-02-25T02:42:52.454Z,0.00
2019-02-25T02:43:52.518Z,0.00
2019-02-25T02:44:52.479Z,0.00
2019-02-25T02:45:52.452Z,0.00
2019-02-25T02:46:52.435Z,0.00
2019-02-25T02:47:52.454Z,0.00
2019-02-25T02:48:52.397Z,0.00
2019-02-25T02:49:52.389Z,0.00
2019-02-25T02:50:52.385Z,0.00
2019-02-25T02:51:52.393Z,0.00
2019-02-25T02:52:52.385Z,0.00
2019-02-25T02:53:52.378Z,0.00
2019-02-25T02:54:52.383Z,0.00
2019-02-25T02:55:52.381Z,0.00
2019-02-25T02:56:52.313Z,0.00
2019-02-25T02:57:52.346Z,0.00
2019-02-25T02:58:52.299Z,0.00
2019-02-25T02:59:52.478Z,0.00
2019-02-25T03:00:52.261Z,0.00
2019-02-25T03:01:52.264Z,0.00
2019-02-25T03:02:52.279Z,0.00
2019-02-25T03:03:52.276Z,0.00
2019-02-25T03:04:52.222Z,0.00
2019-02-25T03:05:52.292Z,0.00
2019-02-25T03:06:52.203Z,0.00
2019-02-25T03:07:52.217Z,0.00
2019-02-25T03:08:52.187Z,0.00
2019-02-25T03:09:52.170Z,0.00
2019-02-25T03:10:52.235Z,0.00
2019-02-25T03:11:52.186Z,0.00
2019-02-25T03:12:52.192Z,0.00
2019-02-25T03:13:52.128Z,0.00
2019-02-25T03:14:52.118Z,0.00
2019-02-25T03:15:52.100Z,0.00
2019-02-25T03:16:52.113Z,0.00
2019-02-25T03:17:52.133Z,0.00
2019-02-25T03:18:52.118Z,0.00
2019-02-25T03:19:52.063Z,0.00
2019-02-25T03:20:52.043Z,0.00
2019-02-25T03:21:52.044Z,0.00
2019-02-25T03:22:52.044Z,0.00
2019-02-25T03:23:52.098Z,0.00
2019-02-25T03:24:52.007Z,0.00
2019-02-25T03:25:52.003Z,0.00
2019-02-25T03:26:51.998Z,0.00
2019-02-25T03:27:51.971Z,0.00
2019-02-25T03:28:51.992Z,0.00
2019-02-25T03:29:52.019Z,0.00
2019-02-25T03:30:51.937Z,0.00
2019-02-25T03:31:51.952Z,0.00
2019-02-25T03:32:51.939Z,0.00
2019-02-25T03:33:51.910Z,0.00
2019-02-25T03:34:51.896Z,0.00
2019-02-25T03:35:52.090Z,0.00
2019-02-25T03:36:51.900Z,0.00
2019-02-25T03:37:51.879Z,0.00
2019-02-25T03:38:51.870Z,0.00
2019-02-25T03:39:51.886Z,0.00
2019-02-25T03:40:51.835Z,0.00
2019-02-25T03:41:51.862Z,0.00
2019-02-25T03:42:51.810Z,0.00
2019-02-25T03:43:51.799Z,0.00
2019-02-25T03:44:51.808Z,0.00
2019-02-25T03:45:51.780Z,0.00
2019-02-25T03:46:51.826Z,0.00
2019-02-25T03:47:51.829Z,0.00
2019-02-25T03:48:51.767Z,0.00
2019-02-25T03:49:51.758Z,0.00
2019-02-25T03:50:51.739Z,0.00
2019-02-25T03:51:51.709Z,0.00
2019-02-25T03:52:51.710Z,0.00
2019-02-25T03:53:51.728Z,0.00
2019-02-25T03:54:51.722Z,0.00
2019-02-25T03:55:51.684Z,0.00
2019-02-25T03:56:51.722Z,0.00
2019-02-25T03:57:51.664Z,0.00
2019-02-25T03:58:51.648Z,0.00
2019-02-25T03:59:51.716Z,0.00
2019-02-25T04:00:51.614Z,0.00
2019-02-25T04:01:51.606Z,0.00
2019-02-25T04:02:51.619Z,0.00
2019-02-25T04:03:51.586Z,0.00
2019-02-25T04:04:51.584Z,0.00
2019-02-25T04:05:51.629Z,0.00
2019-02-25T04:06:51.595Z,0.00
2019-02-25T04:07:51.569Z,0.00
2019-02-25T04:08:51.527Z,0.00
2019-02-25T04:09:51.526Z,0.00
2019-02-25T04:10:51.524Z,0.00
2019-02-25T04:11:51.557Z,0.00
2019-02-25T04:12:51.487Z,0.00
2019-02-25T04:13:51.480Z,0.00
2019-02-25T04:14:51.491Z,0.00
2019-02-25T04:15:51.468Z,0.00
2019-02-25T04:16:51.444Z,0.00
2019-02-25T04:17:51.481Z,0.00
2019-02-25T04:18:51.416Z,0.00
2019-02-25T04:19:51.406Z,0.00
2019-02-25T04:20:51.412Z,0.00
2019-02-25T04:21:51.397Z,0.00
2019-02-25T04:22:51.367Z,0.00
2019-02-25T04:23:51.419Z,0.00
2019-02-25T04:24:51.369Z,0.00
2019-02-25T04:25:51.338Z,0.00
2019-02-25T04:26:51.331Z,0.00
2019-02-25T04:27:51.333Z,0.00
2019-02-25T04:28:51.314Z,0.00
2019-02-25T04:29:51.374Z,0.00
2019-02-25T04:30:51.299Z,0.00
2019-02-25T04:31:51.277Z,0.00
2019-02-25T04:32:51.283Z,0.00
2019-02-25T04:33:51.277Z,0.00
2019-02-25T04:34:51.240Z,0.00
2019-02-25T04:35:51.331Z,0.00
2019-02-25T04:36:51.298Z,0.00
2019-02-25T04:37:51.223Z,0.00
2019-02-25T04:38:51.215Z,0.00
2019-02-25T04:39:51.208Z,0.00
2019-02-25T04:40:51.203Z,0.00
2019-02-25T04:41:51.248Z,0.00
2019-02-25T04:42:51.153Z,0.00
2019-02-25T04:43:51.139Z,0.00
2019-02-25T04:44:51.376Z,0.00
2019-02-25T04:45:51.121Z,0.00
2019-02-25T04:46:51.111Z,0.00
2019-02-25T04:47:51.148Z,0.00
2019-02-25T04:48:51.097Z,0.00
2019-02-25T04:49:51.094Z,0.00
2019-02-25T04:50:51.080Z,0.00
2019-02-25T04:51:51.074Z,0.00
2019-02-25T04:52:51.050Z,0.00
2019-02-25T04:53:51.132Z,0.00
2019-02-25T04:54:51.026Z,0.00
2019-02-25T04:55:51.057Z,0.00
2019-02-25T04:56:51.051Z,0.00
2019-02-25T04:57:51.022Z,0.00
2019-02-25T04:58:50.984Z,0.00
2019-02-25T04:59:51.060Z,0.00
2019-02-25T05:00:50.976Z,0.00
2019-02-25T05:01:50.953Z,0.00
2019-02-25T05:02:50.940Z,0.00
2019-02-25T05:03:50.943Z,0.00
2019-02-25T05:04:51.020Z,0.00
2019-02-25T05:05:50.972Z,0.00
2019-02-25T05:06:50.922Z,0.00
2019-02-25T05:07:50.904Z,0.00
2019-02-25T05:08:50.888Z,0.00
2019-02-25T05:09:50.860Z,0.00
2019-02-25T05:10:50.858Z,0.00
2019-02-25T05:11:50.874Z,0.00
2019-02-25T05:12:50.838Z,0.00
2019-02-25T05:13:50.820Z,0.00
2019-02-25T05:14:50.818Z,0.00
2019-02-25T05:15:50.805Z,0.00
2019-02-25T05:16:50.823Z,0.00
2019-02-25T05:17:50.881Z,0.00
2019-02-25T05:18:50.780Z,0.00
2019-02-25T05:19:50.755Z,0.00
2019-02-25T05:20:50.744Z,0.00
2019-02-25T05:21:50.742Z,0.00
2019-02-25T05:22:50.730Z,0.00
2019-02-25T05:23:50.738Z,0.00
2019-02-25T05:24:50.709Z,0.00
2019-02-25T05:25:50.731Z,0.00
2019-02-25T05:26:50.735Z,0.00
2019-02-25T05:27:50.674Z,0.00
2019-02-25T05:28:50.666Z,0.00
2019-02-25T05:29:50.744Z,0.00
2019-02-25T05:30:50.641Z,0.00
2019-02-25T05:31:50.627Z,0.00
2019-02-25T05:32:50.619Z,0.00
2019-02-25T05:33:50.634Z,0.00
2019-02-25T05:34:50.600Z,0.00
2019-02-25T05:35:50.612Z,0.00
2019-02-25T05:36:50.590Z,0.00
2019-02-25T05:37:50.564Z,0.00
2019-02-25T05:38:50.561Z,0.00
2019-02-25T05:39:50.544Z,0.00
2019-02-25T05:40:50.541Z,0.00
2019-02-25T05:41:50.566Z,0.00
2019-02-25T05:42:50.538Z,0.00
2019-02-25T05:43:50.501Z,0.00
2019-02-25T05:44:50.499Z,0.00
2019-02-25T05:45:50.490Z,0.00
2019-02-25T05:46:50.462Z,0.00
2019-02-25T05:47:50.637Z,0.00
2019-02-25T05:48:50.446Z,0.00
2019-02-25T05:49:50.431Z,0.00
2019-02-25T05:50:50.440Z,0.00
2019-02-25T05:51:50.417Z,0.00
2019-02-25T05:52:50.406Z,0.00
2019-02-25T05:53:50.449Z,0.00
2019-02-25T05:54:50.376Z,0.00
2019-02-25T05:55:50.383Z,0.00
2019-02-25T05:56:50.355Z,0.00
2019-02-25T05:57:50.341Z,0.00
2019-02-25T05:58:50.386Z,0.00
2019-02-25T05:59:50.360Z,0.00
2019-02-25T06:00:50.329Z,0.00
2019-02-25T06:01:50.300Z,0.00
2019-02-25T06:02:50.288Z,0.00
2019-02-25T06:03:50.285Z,0.00
2019-02-25T06:04:50.307Z,0.00
2019-02-25T06:05:50.299Z,0.00
2019-02-25T06:06:50.247Z,0.00
2019-02-25T06:07:50.238Z,0.00
2019-02-25T06:08:50.230Z,0.00
2019-02-25T06:09:50.219Z,0.00
2019-02-25T06:10:50.250Z,0.00
2019-02-25T06:11:50.238Z,0.00
2019-02-25T06:12:50.182Z,0.00
2019-02-25T06:13:50.169Z,0.00
2019-02-25T06:14:50.162Z,0.00
2019-02-25T06:15:51.403Z,0.00
2019-02-25T06:16:50.178Z,0.00
2019-02-25T06:17:50.204Z,5.62
2019-02-25T06:18:50.125Z,5.62
2019-02-25T06:19:50.110Z,5.62
2019-02-25T06:20:50.094Z,5.62
2019-02-25T06:21:50.089Z,5.62
2019-02-25T06:22:50.151Z,11.25
2019-02-25T06:23:50.267Z,11.25
2019-02-25T06:24:50.055Z,11.25
2019-02-25T06:25:50.045Z,11.25
2019-02-25T06:26:50.036Z,16.88
2019-02-25T06:27:50.025Z,16.88
2019-02-25T06:28:50.012Z,16.88
2019-02-25T06:29:50.102Z,16.88
2019-02-25T06:30:49.998Z,22.50
2019-02-25T06:31:49.985Z,22.50
2019-02-25T06:32:49.973Z,22.50
2019-02-25T06:33:49.956Z,28.12
2019-02-25T06:34:49.965Z,28.12
2019-02-25T06:35:49.990Z,33.75
2019-02-25T06:36:49.972Z,33.75
2019-02-25T06:37:49.916Z,33.75
2019-02-25T06:38:49.899Z,39.38
2019-02-25T06:39:49.892Z,39.38
2019-02-25T06:40:49.875Z,45.00
2019-02-25T06:41:49.946Z,45.00
2019-02-25T06:42:49.924Z,50.62
2019-02-25T06:43:49.843Z,50.62
2019-02-25T06:44:49.838Z,56.25
2019-02-25T06:45:49.859Z,61.88
2019-02-25T06:46:49.822Z,61.88
2019-02-25T06:47:49.846Z,67.50
2019-02-25T06:48:49.818Z,67.50
2019-02-25T06:49:49.793Z,73.12
2019-02-25T06:50:49.774Z,73.12
2019-02-25T06:51:49.761Z,78.75
2019-02-25T06:52:49.775Z,78.75
2019-02-25T06:53:49.772Z,84.38
2019-02-25T06:54:49.794Z,84.38
2019-02-25T06:55:49.740Z,90.00
2019-02-25T06:56:49.710Z,95.62
2019-02-25T06:57:49.703Z,95.62
2019-02-25T06:58:49.687Z,101.25
2019-02-25T06:59:49.707Z,101.25
2019-02-25T07:00:49.663Z,106.88
2019-02-25T07:01:49.714Z,106.88
2019-02-25T07:02:49.651Z,112.50
2019-02-25T07:03:49.636Z,112.50
2019-02-25T07:04:49.628Z,118.12
2019-02-25T07:05:49.664Z,118.12
2019-02-25T07:06:49.599Z,123.75
2019-02-25T07:07:49.588Z,123.75
2019-02-25T07:08:49.624Z,129.38
2019-02-25T07:09:49.611Z,129.38
2019-02-25T07:10:49.559Z,135.00
2019-02-25T07:11:49.589Z,135.00
2019-02-25T07:12:49.537Z,140.62
2019-02-25T07:13:49.523Z,140.62
2019-02-25T07:14:49.515Z,146.25
2019-02-25T07:15:49.543Z,146.25
2019-02-25T07:16:49.493Z,146.25
2019-02-25T07:17:49.532Z,151.88
2019-02-25T07:18:49.466Z,151.88
2019-02-25T07:19:49.458Z,151.88
2019-02-25T07:20:49.446Z,151.88
2019-02-25T07:21:49.487Z,151.88
2019-02-25T07:22:49.429Z,157.50
2019-02-25T07:23:49.472Z,157.50
2019-02-25T07:24:52.930Z,163.12
2019-02-25T07:25:49.393Z,163.12
2019-02-25T07:26:49.384Z,163.12
2019-02-25T07:27:49.370Z,168.75
2019-02-25T07:28:49.404Z,168.75
2019-02-25T07:29:49.398Z,168.75
2019-02-25T07:30:49.353Z,174.38
2019-02-25T07:31:49.342Z,174.38
2019-02-25T07:32:49.326Z,174.38
2019-02-25T07:33:49.365Z,180.00
2019-02-25T07:34:49.334Z,180.00
2019-02-25T07:35:49.341Z,180.00
2019-02-25T07:36:49.289Z,185.62
2019-02-25T07:37:51.560Z,185.62
2019-02-25T07:38:49.357Z,185.62
2019-02-25T07:39:49.269Z,191.25
2019-02-25T07:40:49.227Z,191.25
2019-02-25T07:41:49.275Z,191.25
2019-02-25T07:42:49.208Z,191.25
2019-02-25T07:43:49.242Z,196.88
2019-02-25T07:44:49.190Z,196.88
2019-02-25T07:45:49.178Z,196.88
2019-02-25T07:46:49.168Z,202.50
2019-02-25T07:47:49.205Z,202.50
2019-02-25T07:48:49.189Z,202.50
2019-02-25T07:49:49.132Z,202.50
2019-02-25T07:50:49.124Z,208.12
2019-02-25T07:51:49.109Z,208.12
2019-02-25T07:52:49.103Z,208.12
2019-02-25T07:53:49.139Z,208.12
2019-02-25T07:54:49.128Z,213.75
2019-02-25T07:55:49.064Z,213.75
2019-02-25T07:56:49.057Z,213.75
2019-02-25T07:57:49.047Z,213.75
2019-02-25T07:58:49.033Z,219.38
2019-02-25T07:59:49.049Z,219.38
2019-02-25T08:00:49.060Z,219.38
2019-02-25T08:01:49.005Z,219.38
2019-02-25T08:02:48.984Z,219.38
2019-02-25T08:03:48.980Z,225.00
2019-02-25T08:04:48.964Z,225.00
2019-02-25T08:05:48.996Z,225.00
2019-02-25T08:06:48.962Z,225.00
2019-02-25T08:07:48.932Z,230.62
2019-02-25T08:08:48.922Z,230.62
2019-02-25T08:09:50.446Z,230.62
2019-02-25T08:10:48.901Z,230.62
2019-02-25T08:11:48.937Z,230.62
2019-02-25T08:12:48.930Z,236.25
2019-02-25T08:13:48.866Z,236.25
2019-02-25T08:14:48.859Z,236.25
2019-02-25T08:15:48.844Z,236.25
2019-02-25T08:16:48.839Z,236.25
2019-02-25T08:17:48.850Z,241.88
2019-02-25T08:18:48.815Z,241.88
2019-02-25T08:19:48.833Z,241.88
2019-02-25T08:20:48.798Z,241.88
2019-02-25T08:21:48.775Z,241.88
2019-02-25T08:22:48.774Z,241.88
2019-02-25T08:23:48.803Z,247.50
2019-02-25T08:24:48.748Z,247.50
2019-02-25T08:25:48.737Z,247.50
2019-02-25T08:26:48.719Z,247.50
2019-02-25T08:27:48.753Z,247.50
2019-02-25T08:28:48.701Z,247.50
2019-02-25T08:29:48.715Z,253.12
2019-02-25T08:30:48.676Z,253.12
2019-02-25T08:31:48.678Z,253.12
2019-02-25T08:32:48.654Z,253.12
2019-02-25T08:33:48.738Z,253.12
2019-02-25T08:34:48.647Z,253.12
2019-02-25T08:35:48.676Z,258.75
2019-02-25T08:36:48.613Z,258.75
2019-02-25T08:37:48.604Z,258.75
2019-02-25T08:38:48.589Z,258.75
2019-02-25T08:39:48.582Z,258.75
2019-02-25T08:40:48.642Z,258.75
2019-02-25T08:41:48.610Z,258.75
2019-02-25T08:42:48.548Z,258.75
2019-02-25T08:43:48.536Z,264.38
2019-02-25T08:44:48.528Z,264.38
2019-02-25T08:45:48.516Z,264.38
2019-02-25T08:46:48.522Z,264.38
2019-02-25T08:47:48.525Z,264.38
2019-02-25T08:48:48.481Z,264.38
2019-02-25T08:49:48.468Z,264.38
2019-02-25T08:50:48.458Z,264.38
2019-02-25T08:51:48.452Z,264.38
2019-02-25T08:52:48.487Z,270.00
2019-02-25T08:53:48.490Z,270.00
2019-02-25T08:54:48.414Z,270.00
2019-02-25T08:55:48.411Z,270.00
2019-02-25T08:56:48.391Z,270.00
2019-02-25T08:57:48.405Z,270.00
2019-02-25T08:58:48.439Z,270.00
2019-02-25T08:59:48.399Z,270.00
2019-02-25T09:00:48.358Z,270.00
2019-02-25T09:01:48.335Z,270.00
2019-02-25T09:02:48.327Z,275.62
2019-02-25T09:03:48.318Z,275.62
2019-02-25T09:04:49.299Z,275.62
2019-02-25T09:05:48.348Z,275.62
2019-02-25T09:06:48.280Z,275.62
2019-02-25T09:07:48.276Z,275.62
2019-02-25T09:08:48.265Z,275.62
2019-02-25T09:09:48.251Z,275.62
2019-02-25T09:10:48.236Z,281.25
2019-02-25T09:11:48.309Z,281.25
2019-02-25T09:12:48.878Z,281.25
2019-02-25T09:13:48.205Z,281.25
2019-02-25T09:14:48.200Z,281.25
2019-02-25T09:15:48.189Z,281.25
2019-02-25T09:16:48.170Z,281.25
2019-02-25T09:17:48.284Z,281.25
2019-02-25T09:18:48.162Z,281.25
2019-02-25T09:19:48.137Z,281.25
2019-02-25T09:20:48.126Z,281.25
2019-02-25T09:21:48.118Z,281.25
2019-02-25T09:22:48.105Z,281.25
2019-02-25T09:23:48.186Z,281.25
2019-02-25T09:24:48.079Z,286.88
2019-02-25T09:25:48.078Z,286.88
2019-02-25T09:26:48.061Z,286.88
2019-02-25T09:27:48.048Z,286.88
2019-02-25T09:28:48.054Z,286.88
2019-02-25T09:29:48.066Z,286.88
2019-02-25T09:30:48.054Z,286.88
2019-02-25T09:31:48.010Z,286.88
2019-02-25T09:32:48.000Z,286.88
2019-02-25T09:33:47.981Z,286.88
2019-02-25T09:34:47.976Z,286.88
2019-02-25T09:35:47.997Z,286.88
2019-02-25T09:36:48.021Z,286.88
2019-02-25T09:37:47.954Z,286.88
2019-02-25T09:38:47.932Z,286.88
2019-02-25T09:39:47.912Z,286.88
2019-02-25T09:40:47.901Z,286.88
2019-02-25T09:41:47.963Z,292.50
2019-02-25T09:42:47.889Z,298.12
2019-02-25T09:43:47.907Z,292.50
2019-02-25T09:44:47.866Z,292.50
2019-02-25T09:45:47.875Z,292.50
2019-02-25T09:46:47.841Z,292.50
2019-02-25T09:47:47.894Z,292.50
2019-02-25T09:48:47.890Z,292.50
2019-02-25T09:49:47.806Z,292.50
2019-02-25T09:50:47.796Z,292.50
2019-02-25T09:51:47.783Z,292.50
2019-02-25T09:52:47.830Z,292.50
2019-02-25T09:53:47.840Z,292.50
2019-02-25T09:54:47.755Z,298.12
2019-02-25T09:55:47.734Z,298.12
2019-02-25T09:56:47.731Z,298.12
2019-02-25T09:57:47.797Z,298.12
2019-02-25T09:58:47.712Z,298.12
2019-02-25T09:59:47.734Z,298.12
2019-02-25T10:00:47.685Z,298.12
2019-02-25T10:01:47.733Z,298.12
2019-02-25T10:02:47.661Z,298.12
2019-02-25T10:03:47.646Z,298.12
2019-02-25T10:04:47.667Z,298.12
2019-02-25T10:05:47.668Z,298.12
2019-02-25T10:06:47.613Z,298.12
2019-02-25T10:07:47.601Z,298.12
2019-02-25T10:08:47.599Z,298.12
2019-02-25T10:09:47.650Z,298.12
2019-02-25T10:10:47.570Z,303.75
2019-02-25T10:11:48.749Z,303.75
2019-02-25T10:12:47.551Z,303.75
2019-02-25T10:13:47.548Z,303.75
2019-02-25T10:14:49.529Z,303.75
2019-02-25T10:15:47.597Z,303.75
2019-02-25T10:16:47.502Z,303.75
2019-02-25T10:17:47.542Z,303.75
2019-02-25T10:18:47.479Z,303.75
2019-02-25T10:19:47.483Z,303.75
2019-02-25T10:20:47.462Z,303.75
2019-02-25T10:21:47.447Z,303.75
2019-02-25T10:22:47.480Z,303.75
2019-02-25T10:23:47.480Z,303.75
2019-02-25T10:24:47.421Z,309.38
2019-02-25T10:25:47.409Z,303.75
2019-02-25T10:26:47.396Z,303.75
2019-02-25T10:27:49.518Z,303.75
2019-02-25T10:28:47.382Z,303.75
2019-02-25T10:29:47.588Z,303.75
2019-02-25T10:30:52.947Z,303.75
2019-02-25T10:31:48.346Z,309.38
2019-02-25T10:32:47.325Z,303.75
2019-02-25T10:33:47.313Z,303.75
2019-02-25T10:34:47.307Z,303.75
2019-02-25T10:35:47.410Z,303.75
2019-02-25T10:36:48.145Z,303.75
2019-02-25T10:37:47.279Z,303.75
2019-02-25T10:38:47.261Z,303.75
2019-02-25T10:39:47.999Z,303.75
2019-02-25T10:40:47.839Z,303.75
2019-02-25T10:41:47.456Z,303.75
2019-02-25T10:42:47.219Z,303.75
2019-02-25T10:43:47.210Z,303.75
2019-02-25T10:44:47.193Z,303.75
2019-02-25T10:45:47.183Z,303.75
2019-02-25T10:46:49.091Z,303.75
2019-02-25T10:47:49.004Z,303.75
2019-02-25T10:48:47.865Z,303.75
2019-02-25T10:49:47.144Z,303.75
2019-02-25T10:50:55.581Z,303.75
2019-02-25T10:51:48.130Z,303.75
2019-02-25T10:52:49.276Z,303.75
2019-02-25T10:53:47.879Z,303.75
2019-02-25T10:54:47.940Z,303.75
2019-02-25T10:55:48.806Z,303.75
2019-02-25T10:56:47.773Z,303.75
2019-02-25T10:57:47.049Z,303.75
2019-02-25T10:58:47.045Z,303.75
2019-02-25T10:59:47.087Z,303.75
2019-02-25T11:00:47.019Z,309.38
2019-02-25T11:01:47.522Z,309.38
2019-02-25T11:02:48.957Z,309.38
2019-02-25T11:03:47.932Z,309.38
2019-02-25T11:04:47.466Z,309.38
2019-02-25T11:05:47.011Z,309.38
2019-02-25T11:06:46.956Z,309.38
2019-02-25T11:07:46.948Z,309.38
2019-02-25T11:08:46.994Z,309.38
2019-02-25T11:09:48.333Z,309.38
2019-02-25T11:10:48.538Z,309.38
2019-02-25T11:11:48.493Z,309.38
2019-02-25T11:12:46.935Z,309.38
2019-02-25T11:13:46.878Z,309.38
2019-02-25T11:14:46.909Z,309.38
2019-02-25T11:15:48.418Z,309.38
2019-02-25T11:16:48.058Z,309.38
2019-02-25T11:17:47.654Z,315.00
2019-02-25T11:18:46.817Z,315.00
2019-02-25T11:19:46.804Z,315.00
2019-02-25T11:20:46.794Z,315.00
2019-02-25T11:21:46.812Z,315.00
2019-02-25T11:22:48.540Z,315.00
2019-02-25T11:23:48.709Z,315.00
2019-02-25T11:24:49.138Z,315.00
2019-02-25T11:25:46.735Z,315.00
2019-02-25T11:26:46.725Z,315.00
2019-02-25T11:27:46.759Z,315.00
2019-02-25T11:28:46.703Z,315.00
2019-02-25T11:29:48.396Z,315.00
2019-02-25T11:30:47.633Z,315.00
2019-02-25T11:31:47.339Z,315.00
2019-02-25T11:32:46.667Z,315.00
2019-02-25T11:33:46.692Z,315.00
2019-02-25T11:34:46.642Z,315.00
2019-02-25T11:35:48.062Z,315.00
2019-02-25T11:36:48.225Z,315.00
2019-02-25T11:37:46.606Z,315.00
2019-02-25T11:38:46.586Z,315.00
2019-02-25T11:39:46.644Z,315.00
2019-02-25T11:40:46.572Z,315.00
2019-02-25T11:41:46.594Z,320.62
2019-02-25T11:42:46.570Z,320.62
2019-02-25T11:43:48.695Z,320.62
2019-02-25T11:44:46.524Z,320.62
2019-02-25T11:45:46.519Z,320.62
2019-02-25T11:46:46.502Z,320.62
2019-02-25T11:47:46.641Z,320.62
2019-02-25T11:48:46.477Z,320.62
2019-02-25T11:49:46.463Z,320.62
2019-02-25T11:50:46.463Z,320.62
2019-02-25T11:51:46.452Z,320.62
2019-02-25T11:52:46.457Z,326.25
2019-02-25T11:53:46.471Z,326.25
2019-02-25T11:54:46.414Z,326.25
2019-02-25T11:55:46.415Z,331.88
2019-02-25T11:56:46.426Z,337.50
2019-02-25T11:57:46.376Z,348.75
2019-02-25T11:58:46.360Z,354.38
2019-02-25T11:59:46.405Z,376.88
2019-02-25T12:00:46.339Z,478.12
2019-02-25T12:01:46.326Z,579.38
2019-02-25T12:02:46.324Z,596.25
2019-02-25T12:03:46.309Z,596.25
2019-02-25T12:04:48.338Z,590.62
2019-02-25T12:05:46.319Z,590.62
2019-02-25T12:06:46.272Z,607.50
2019-02-25T12:07:46.273Z,618.75
2019-02-25T12:08:46.260Z,641.25
2019-02-25T12:09:46.250Z,663.75
2019-02-25T12:10:46.226Z,663.75
2019-02-25T12:11:46.267Z,658.12
2019-02-25T12:12:46.207Z,641.25
2019-02-25T12:13:46.198Z,630.00
2019-02-25T12:14:46.182Z,613.12
2019-02-25T12:15:46.189Z,641.25
2019-02-25T12:16:46.174Z,691.88
2019-02-25T12:17:46.221Z,703.12
2019-02-25T12:18:46.143Z,691.88
2019-02-25T12:19:46.146Z,697.50
2019-02-25T12:20:46.122Z,697.50
2019-02-25T12:21:46.150Z,703.12
2019-02-25T12:22:46.104Z,742.50
2019-02-25T12:23:46.141Z,804.38
2019-02-25T12:24:46.072Z,849.38
2019-02-25T12:25:46.133Z,838.12
2019-02-25T12:26:46.063Z,838.12
2019-02-25T12:27:46.056Z,843.75
2019-02-25T12:28:46.031Z,815.62
2019-02-25T12:29:46.057Z,843.75
2019-02-25T12:30:46.011Z,928.12
2019-02-25T12:31:45.999Z,1001.25
2019-02-25T12:32:45.994Z,1068.75
2019-02-25T12:33:45.974Z,1119.38
2019-02-25T12:34:45.969Z,1130.62
2019-02-25T12:35:45.987Z,1040.62
2019-02-25T12:36:45.937Z,883.12
2019-02-25T12:37:45.933Z,781.88
2019-02-25T12:38:45.964Z,691.88
2019-02-25T12:39:45.919Z,630.00
2019-02-25T12:40:45.892Z,590.62
2019-02-25T12:41:45.941Z,562.50
2019-02-25T12:42:45.878Z,545.62
2019-02-25T12:43:45.857Z,534.38
2019-02-25T12:44:45.849Z,523.12
2019-02-25T12:45:45.866Z,478.12
2019-02-25T12:46:45.830Z,517.50
2019-02-25T12:47:45.865Z,511.88
2019-02-25T12:48:45.800Z,511.88
2019-02-25T12:49:45.791Z,506.25
2019-02-25T12:50:45.795Z,517.50
2019-02-25T12:51:45.767Z,506.25
2019-02-25T12:52:45.756Z,500.62
2019-02-25T12:53:45.793Z,506.25